Time;durP1;ratioP1;P1;durP2;ratioP2;P2;SDS_P1;SDS_P2;PMS_P1;PMS_P2;Temp;Humidity;BMP_temperature;BMP_pressure;BME280_temperature;BME280_humidity;BME280_pressure;Samples;Min_cycle;Max_cycle;Signal;HPM_P1;HPM_P2
2022/11/13 00:01:22;;;;;;;10.32;4.10;;;;;;;;;;5037606;28;20045;-50
2022/11/13 00:03:49;;;;;;;12.65;4.55;;;;;;;;;;5037237;28;20783;-49
2022/11/13 00:06:16;;;;;;;10.60;4.15;;;;;;;;;;5034818;28;20063;-50
2022/11/13 00:08:43;;;;;;;9.07;3.42;;;;;;;;;;5039183;28;20073;-49
2022/11/13 00:11:11;;;;;;;10.15;3.85;;;;;;;;;;5047017;28;20049;-50
2022/11/13 00:13:37;;;;;;;11.27;3.95;;;;;;;;;;5042158;28;20168;-49
2022/11/13 00:16:06;;;;;;;20.73;5.38;;;;;;;;;;5038383;28;20156;-49
2022/11/13 00:18:34;;;;;;;11.10;4.30;;;;;;;;;;5041739;28;20140;-52
2022/11/13 00:21:04;;;;;;;8.70;3.55;;;;;;;;;;5046324;28;20059;-51
2022/11/13 00:23:33;;;;;;;7.60;2.50;;;;;;;;;;5038312;28;20133;-51
2022/11/13 00:26:03;;;;;;;7.78;2.92;;;;;;;;;;5036753;28;20049;-49
2022/11/13 00:28:29;;;;;;;9.63;3.80;;;;;;;;;;5052320;28;20143;-52
2022/11/13 00:30:58;;;;;;;10.88;3.22;;;;;;;;;;5037170;28;20459;-48
2022/11/13 00:33:25;;;;;;;10.48;3.22;;;;;;;;;;5042643;28;20154;-50
2022/11/13 00:35:52;;;;;;;9.63;3.53;;;;;;;;;;5034243;28;20064;-49
2022/11/13 00:38:18;;;;;;;6.97;2.20;;;;;;;;;;5039087;28;20568;-53
2022/11/13 00:40:45;;;;;;;4.55;2.08;;;;;;;;;;5051604;28;20128;-49
2022/11/13 00:43:11;;;;;;;4.82;2.17;;;;;;;;;;5043325;28;20522;-49
2022/11/13 00:45:37;;;;;;;5.43;2.53;;;;;;;;;;5043196;28;20045;-52
2022/11/13 00:48:04;;;;;;;8.50;3.20;;;;;;;;;;5043538;28;20139;-50
2022/11/13 00:50:32;;;;;;;5.30;2.15;;;;;;;;;;5044835;28;20132;-53
2022/11/13 00:52:58;;;;;;;4.75;2.08;;;;;;;;;;5046625;28;20048;-49
2022/11/13 00:55:24;;;;;;;5.00;1.52;;;;;;;;;;5034147;28;20136;-50
2022/11/13 00:57:51;;;;;;;5.15;1.63;;;;;;;;;;5037145;28;20158;-51
2022/11/13 01:00:17;;;;;;;4.13;1.77;;;;;;;;;;5033711;28;20132;-51
2022/11/13 01:02:44;;;;;;;3.08;1.40;;;;;;;;;;5033539;28;20124;-50
2022/11/13 01:05:10;;;;;;;3.05;1.30;;;;;;;;;;5033755;28;20140;-49
2022/11/13 01:07:38;;;;;;;2.72;1.40;;;;;;;;;;5033588;28;20136;-50
2022/11/13 01:10:04;;;;;;;3.33;1.58;;;;;;;;;;5041858;28;20144;-52
2022/11/13 01:12:31;;;;;;;4.60;1.77;;;;;;;;;;5045944;28;20139;-53
2022/11/13 01:14:57;;;;;;;3.15;1.73;;;;;;;;;;5040689;28;20132;-49
2022/11/13 01:17:24;;;;;;;3.67;1.25;;;;;;;;;;5046420;28;20136;-49
2022/11/13 01:19:50;;;;;;;5.40;2.00;;;;;;;;;;5049230;28;20609;-49
2022/11/13 01:22:16;;;;;;;2.35;1.48;;;;;;;;;;5046299;28;20136;-50
2022/11/13 01:24:44;;;;;;;4.80;1.58;;;;;;;;;;5048484;28;20460;-51
2022/11/13 01:27:12;;;;;;;7.57;2.25;;;;;;;;;;5043050;28;20045;-53
2022/11/13 01:29:38;;;;;;;5.85;2.30;;;;;;;;;;5047039;28;20080;-50
2022/11/13 01:32:05;;;;;;;6.57;2.55;;;;;;;;;;5033665;28;20057;-52
2022/11/13 01:34:31;;;;;;;8.35;2.80;;;;;;;;;;5045452;28;20068;-52
2022/11/13 01:36:58;;;;;;;5.63;2.83;;;;;;;;;;5038318;28;20140;-50
2022/11/13 01:39:24;;;;;;;8.82;2.67;;;;;;;;;;5037885;28;20247;-52
2022/11/13 01:41:52;;;;;;;7.03;2.45;;;;;;;;;;5035907;28;20557;-52
2022/11/13 01:44:19;;;;;;;6.75;2.95;;;;;;;;;;5036634;28;20473;-51
2022/11/13 01:46:46;;;;;;;7.60;2.25;;;;;;;;;;5044987;28;20059;-49
2022/11/13 01:49:17;;;;;;;5.65;1.80;;;;;;;;;;5032423;28;20736;-49
2022/11/13 01:51:47;;;;;;;3.03;1.67;;;;;;;;;;5032574;28;20821;-53
2022/11/13 01:54:15;;;;;;;4.03;1.30;;;;;;;;;;5037793;28;20060;-53
2022/11/13 01:56:42;;;;;;;3.72;1.58;;;;;;;;;;5035199;28;20132;-50
2022/11/13 01:59:12;;;;;;;8.88;1.67;;;;;;;;;;5042374;28;20132;-52
2022/11/13 02:01:38;;;;;;;2.70;1.40;;;;;;;;;;5046337;28;20083;-49
2022/11/13 02:04:05;;;;;;;5.72;2.10;;;;;;;;;;5032327;28;20144;-49
2022/11/13 02:06:35;;;;;;;4.85;1.70;;;;;;;;;;5032130;28;20537;-49
2022/11/13 02:09:02;;;;;;;6.28;2.17;;;;;;;;;;5032605;28;20530;-49
2022/11/13 02:11:28;;;;;;;5.40;1.98;;;;;;;;;;5032324;28;20750;-49
2022/11/13 02:13:54;;;;;;;5.72;2.10;;;;;;;;;;5036105;28;20128;-49
2022/11/13 02:16:23;;;;;;;6.07;1.95;;;;;;;;;;5033916;28;20136;-47
2022/11/13 02:18:50;;;;;;;6.68;2.60;;;;;;;;;;5041173;28;20055;-48
2022/11/13 02:21:22;;;;;;;3.53;1.90;;;;;;;;;;5039474;28;20371;-48
2022/11/13 02:23:51;;;;;;;10.48;2.88;;;;;;;;;;5047819;28;20049;-49
2022/11/13 02:26:22;;;;;;;5.22;2.15;;;;;;;;;;5032662;28;20546;-50
2022/11/13 02:28:48;;;;;;;6.57;1.85;;;;;;;;;;5045647;28;20415;-49
2022/11/13 02:31:15;;;;;;;6.15;1.67;;;;;;;;;;5033736;28;20042;-51
2022/11/13 02:33:41;;;;;;;7.18;2.30;;;;;;;;;;5037968;28;20128;-50
2022/11/13 02:36:09;;;;;;;4.85;2.22;;;;;;;;;;5033427;28;20093;-49
2022/11/13 02:38:36;;;;;;;4.85;1.73;;;;;;;;;;5037971;28;20084;-49
2022/11/13 02:41:02;;;;;;;4.18;1.92;;;;;;;;;;5032344;28;20075;-50
2022/11/13 02:43:30;;;;;;;4.68;2.08;;;;;;;;;;5037007;28;20136;-51
2022/11/13 02:45:57;;;;;;;5.38;1.77;;;;;;;;;;5041048;28;20141;-49
2022/11/13 02:48:23;;;;;;;3.42;1.98;;;;;;;;;;5041946;28;20781;-52
2022/11/13 02:50:49;;;;;;;4.55;1.95;;;;;;;;;;5036571;28;20038;-49
2022/11/13 02:53:16;;;;;;;2.72;1.45;;;;;;;;;;5048731;28;20045;-52
2022/11/13 02:55:42;;;;;;;5.80;2.38;;;;;;;;;;5047476;28;20132;-49
2022/11/13 02:58:09;;;;;;;6.60;2.22;;;;;;;;;;5042664;28;20434;-49
2022/11/13 03:00:36;;;;;;;4.60;1.83;;;;;;;;;;5045289;28;20103;-50
2022/11/13 03:03:03;;;;;;;5.40;1.65;;;;;;;;;;5038600;28;20045;-49
2022/11/13 03:05:29;;;;;;;4.22;1.90;;;;;;;;;;5037840;28;20053;-49
2022/11/13 03:07:56;;;;;;;5.50;2.28;;;;;;;;;;5035806;28;20132;-49
2022/11/13 03:10:22;;;;;;;5.90;2.00;;;;;;;;;;5038861;28;20053;-52
2022/11/13 03:12:48;;;;;;;4.65;1.58;;;;;;;;;;5050069;28;20080;-49
2022/11/13 03:15:15;;;;;;;6.95;2.53;;;;;;;;;;5036868;28;20148;-49
2022/11/13 03:17:43;;;;;;;4.20;2.00;;;;;;;;;;5039792;28;20084;-51
2022/11/13 03:20:09;;;;;;;4.63;1.75;;;;;;;;;;5054916;28;20123;-49
2022/11/13 03:22:36;;;;;;;6.88;1.80;;;;;;;;;;5044019;28;20051;-49
2022/11/13 03:25:02;;;;;;;3.47;1.80;;;;;;;;;;5042631;28;20160;-52
2022/11/13 03:27:30;;;;;;;4.55;1.90;;;;;;;;;;5039652;28;20171;-50
2022/11/13 03:29:56;;;;;;;3.55;1.70;;;;;;;;;;5035412;28;20362;-49
2022/11/13 03:32:22;;;;;;;3.47;1.88;;;;;;;;;;5042660;28;20052;-49
2022/11/13 03:34:50;;;;;;;4.93;2.30;;;;;;;;;;5034999;28;20053;-49
2022/11/13 03:37:17;;;;;;;3.92;1.92;;;;;;;;;;5042722;28;20045;-49
2022/11/13 03:39:43;;;;;;;5.57;2.00;;;;;;;;;;5045603;28;20057;-49
2022/11/13 03:42:09;;;;;;;8.65;2.42;;;;;;;;;;5037915;28;20129;-49
2022/11/13 03:44:36;;;;;;;7.45;2.55;;;;;;;;;;5035743;28;20136;-49
2022/11/13 03:47:02;;;;;;;6.53;2.35;;;;;;;;;;5035285;28;20132;-49
2022/11/13 03:49:28;;;;;;;3.90;2.00;;;;;;;;;;5047116;28;20063;-50
2022/11/13 03:51:56;;;;;;;4.13;2.17;;;;;;;;;;5050386;28;20785;-49
2022/11/13 03:54:23;;;;;;;5.45;1.92;;;;;;;;;;5051725;28;20063;-49
2022/11/13 03:56:49;;;;;;;6.63;2.30;;;;;;;;;;5047951;28;20087;-51
2022/11/13 03:59:15;;;;;;;4.53;2.03;;;;;;;;;;5035792;28;20132;-50
2022/11/13 04:01:42;;;;;;;5.50;1.90;;;;;;;;;;5052146;28;20140;-49
2022/11/13 04:04:08;;;;;;;3.20;1.50;;;;;;;;;;5042554;28;20057;-49
2022/11/13 04:06:35;;;;;;;8.98;2.72;;;;;;;;;;5034727;28;20132;-49
2022/11/13 04:09:02;;;;;;;3.40;1.67;;;;;;;;;;5040844;28;20493;-48
2022/11/13 04:11:29;;;;;;;6.22;2.17;;;;;;;;;;5051414;28;20137;-49
2022/11/13 04:13:55;;;;;;;4.80;1.92;;;;;;;;;;5044060;28;20053;-51
2022/11/13 04:16:21;;;;;;;4.47;2.35;;;;;;;;;;5041309;28;20136;-50
2022/11/13 04:18:48;;;;;;;5.55;2.13;;;;;;;;;;5044324;28;20599;-48
2022/11/13 04:21:14;;;;;;;5.13;2.03;;;;;;;;;;5044102;28;20137;-49
2022/11/13 04:23:41;;;;;;;7.10;3.45;;;;;;;;;;5038618;28;20132;-51
2022/11/13 04:26:08;;;;;;;4.28;2.25;;;;;;;;;;5043723;28;20077;-50
2022/11/13 04:28:35;;;;;;;5.53;2.00;;;;;;;;;;5054307;28;20045;-49
2022/11/13 04:31:01;;;;;;;4.90;2.05;;;;;;;;;;5054214;28;20611;-49
2022/11/13 04:33:29;;;;;;;4.40;2.10;;;;;;;;;;5053928;28;20045;-49
2022/11/13 04:35:55;;;;;;;10.32;2.63;;;;;;;;;;5043588;28;20513;-51
2022/11/13 04:38:22;;;;;;;5.53;2.58;;;;;;;;;;5050606;28;20044;-48
2022/11/13 04:40:49;;;;;;;7.93;2.33;;;;;;;;;;5054077;28;20051;-48
2022/11/13 04:43:16;;;;;;;6.47;2.47;;;;;;;;;;5036616;28;20143;-49
2022/11/13 04:45:42;;;;;;;5.30;2.38;;;;;;;;;;5034436;28;20057;-48
2022/11/13 04:48:08;;;;;;;7.80;2.53;;;;;;;;;;5046940;28;20152;-51
2022/11/13 04:50:35;;;;;;;3.97;2.35;;;;;;;;;;5033859;28;20538;-50
2022/11/13 04:53:01;;;;;;;4.38;2.10;;;;;;;;;;5039361;28;20061;-49
2022/11/13 04:55:27;;;;;;;7.32;2.10;;;;;;;;;;5053487;28;20063;-50
2022/11/13 04:57:56;;;;;;;7.47;2.85;;;;;;;;;;5034548;28;20140;-53
2022/11/13 05:00:24;;;;;;;7.18;2.53;;;;;;;;;;5042148;28;20067;-49
2022/11/13 05:02:51;;;;;;;4.70;2.33;;;;;;;;;;5049357;28;20051;-49
2022/11/13 05:05:17;;;;;;;7.07;2.42;;;;;;;;;;5033838;28;20141;-49
2022/11/13 05:07:43;;;;;;;7.63;2.58;;;;;;;;;;5051223;28;20059;-49
2022/11/13 05:10:10;;;;;;;6.38;2.20;;;;;;;;;;5041402;28;20093;-49
2022/11/13 05:12:36;;;;;;;4.50;2.03;;;;;;;;;;5037820;28;20045;-49
2022/11/13 05:15:03;;;;;;;4.75;2.38;;;;;;;;;;5041915;28;20060;-50
2022/11/13 05:17:31;;;;;;;6.43;2.78;;;;;;;;;;5039750;28;20084;-51
2022/11/13 05:19:57;;;;;;;8.43;2.53;;;;;;;;;;5044397;28;20476;-52
2022/11/13 05:22:24;;;;;;;5.03;2.20;;;;;;;;;;5043500;28;20135;-49
2022/11/13 05:24:50;;;;;;;4.45;2.00;;;;;;;;;;5042338;28;20092;-49
2022/11/13 05:27:16;;;;;;;7.70;2.53;;;;;;;;;;5046119;28;20137;-50
2022/11/13 05:29:43;;;;;;;5.15;2.85;;;;;;;;;;5040161;28;20059;-49
2022/11/13 05:32:09;;;;;;;4.68;1.95;;;;;;;;;;5047021;28;20377;-49
2022/11/13 05:34:37;;;;;;;5.57;2.00;;;;;;;;;;5040541;28;20049;-49
2022/11/13 05:37:03;;;;;;;3.33;1.98;;;;;;;;;;5043466;28;20359;-49
2022/11/13 05:39:30;;;;;;;4.10;1.83;;;;;;;;;;5045413;28;20048;-49
2022/11/13 05:41:56;;;;;;;4.65;2.15;;;;;;;;;;5052543;28;20103;-52
2022/11/13 05:44:22;;;;;;;4.13;2.10;;;;;;;;;;5044683;28;20136;-52
2022/11/13 05:46:49;;;;;;;7.38;2.45;;;;;;;;;;5040616;28;20139;-49
2022/11/13 05:49:15;;;;;;;6.10;2.55;;;;;;;;;;5052603;28;20156;-51
2022/11/13 05:51:43;;;;;;;6.60;2.53;;;;;;;;;;5039451;28;20054;-50
2022/11/13 05:54:13;;;;;;;7.10;2.10;;;;;;;;;;5043549;28;20132;-49
2022/11/13 05:56:39;;;;;;;5.38;2.55;;;;;;;;;;5036076;28;20045;-50
2022/11/13 05:59:06;;;;;;;4.95;2.10;;;;;;;;;;5042360;28;20053;-48
2022/11/13 06:01:33;;;;;;;6.80;2.55;;;;;;;;;;5044556;28;20068;-49
2022/11/13 06:04:00;;;;;;;4.82;2.40;;;;;;;;;;5032360;28;20362;-52
2022/11/13 06:06:27;;;;;;;5.22;2.42;;;;;;;;;;5052489;28;20041;-50
2022/11/13 06:08:57;;;;;;;4.53;2.00;;;;;;;;;;5038394;28;20132;-48
2022/11/13 06:11:24;;;;;;;6.72;2.13;;;;;;;;;;5032377;28;20053;-52
2022/11/13 06:13:51;;;;;;;2.88;1.63;;;;;;;;;;5032143;28;20136;-49
2022/11/13 06:16:18;;;;;;;5.30;2.50;;;;;;;;;;5032622;28;20053;-49
2022/11/13 06:18:45;;;;;;;5.53;2.33;;;;;;;;;;5032346;28;20378;-48
2022/11/13 06:21:16;;;;;;;5.97;1.98;;;;;;;;;;5048132;28;20470;-50
2022/11/13 06:23:43;;;;;;;3.03;1.73;;;;;;;;;;5036131;28;20049;-49
2022/11/13 06:26:12;;;;;;;6.80;2.22;;;;;;;;;;5032076;28;20440;-51
2022/11/13 06:28:38;;;;;;;4.53;2.05;;;;;;;;;;5032524;28;20064;-49
2022/11/13 06:31:06;;;;;;;4.30;1.83;;;;;;;;;;5051120;28;20045;-48
2022/11/13 06:33:32;;;;;;;4.15;1.83;;;;;;;;;;5032853;28;20045;-48
2022/11/13 06:36:01;;;;;;;5.60;2.22;;;;;;;;;;5032477;28;20147;-52
2022/11/13 06:38:29;;;;;;;4.13;1.83;;;;;;;;;;5036093;28;20141;-49
2022/11/13 06:40:56;;;;;;;7.03;2.10;;;;;;;;;;5032041;28;20128;-48
2022/11/13 06:43:24;;;;;;;7.43;2.80;;;;;;;;;;5032134;28;20055;-49
2022/11/13 06:45:51;;;;;;;4.40;2.10;;;;;;;;;;5032580;28;20046;-49
2022/11/13 06:48:17;;;;;;;6.18;2.50;;;;;;;;;;5033032;28;20529;-49
2022/11/13 06:50:43;;;;;;;5.95;2.13;;;;;;;;;;5033027;28;20045;-49
2022/11/13 06:53:10;;;;;;;10.93;2.92;;;;;;;;;;5047539;28;20159;-51
2022/11/13 06:55:36;;;;;;;6.13;2.15;;;;;;;;;;5032904;28;20129;-49
2022/11/13 06:58:02;;;;;;;6.28;2.03;;;;;;;;;;5032641;28;20434;-49
2022/11/13 07:00:30;;;;;;;3.15;1.60;;;;;;;;;;5042057;28;20048;-49
2022/11/13 07:02:57;;;;;;;3.92;2.03;;;;;;;;;;5051915;28;20139;-49
2022/11/13 07:05:23;;;;;;;8.07;2.20;;;;;;;;;;5041030;28;20145;-48
2022/11/13 07:07:49;;;;;;;4.03;1.98;;;;;;;;;;5033609;28;20136;-48
2022/11/13 07:10:16;;;;;;;5.75;1.50;;;;;;;;;;5032193;28;20411;-50
2022/11/13 07:12:45;;;;;;;6.20;1.90;;;;;;;;;;5031923;28;20133;-49
2022/11/13 07:15:11;;;;;;;4.45;1.80;;;;;;;;;;5032315;28;20053;-49
2022/11/13 07:17:39;;;;;;;10.07;2.30;;;;;;;;;;5032355;28;20072;-49
2022/11/13 07:20:06;;;;;;;4.60;2.00;;;;;;;;;;5038937;28;20055;-48
2022/11/13 07:22:32;;;;;;;6.47;2.50;;;;;;;;;;5040759;28;20133;-48
2022/11/13 07:24:58;;;;;;;5.82;2.15;;;;;;;;;;5032226;28;20053;-48
2022/11/13 07:27:25;;;;;;;8.52;2.03;;;;;;;;;;5034024;28;20067;-48
2022/11/13 07:29:51;;;;;;;5.55;2.40;;;;;;;;;;5042894;28;20132;-48
2022/11/13 07:32:17;;;;;;;6.82;2.30;;;;;;;;;;5040235;28;20586;-49
2022/11/13 07:34:45;;;;;;;7.53;2.63;;;;;;;;;;5035879;28;20129;-51
2022/11/13 07:37:12;;;;;;;4.70;2.25;;;;;;;;;;5054884;28;20152;-48
2022/11/13 07:39:39;;;;;;;6.78;2.22;;;;;;;;;;5044575;28;20140;-49
2022/11/13 07:42:06;;;;;;;8.43;2.58;;;;;;;;;;5035216;28;20482;-49
2022/11/13 07:44:32;;;;;;;6.53;3.13;;;;;;;;;;5035346;28;20134;-48
2022/11/13 07:46:59;;;;;;;5.32;2.70;;;;;;;;;;5044244;28;20049;-48
2022/11/13 07:49:26;;;;;;;5.75;2.83;;;;;;;;;;5055235;28;20106;-48
2022/11/13 07:51:54;;;;;;;6.80;2.75;;;;;;;;;;5054406;28;20063;-50
2022/11/13 07:54:20;;;;;;;7.07;2.95;;;;;;;;;;5055030;28;20067;-50
2022/11/13 07:56:47;;;;;;;6.07;2.35;;;;;;;;;;5049061;28;20140;-51
2022/11/13 07:59:13;;;;;;;5.10;2.30;;;;;;;;;;5034711;28;20059;-53
2022/11/13 08:01:40;;;;;;;6.07;2.70;;;;;;;;;;5054153;28;20056;-49
2022/11/13 08:04:06;;;;;;;7.78;3.08;;;;;;;;;;5042194;28;20048;-49
2022/11/13 08:06:32;;;;;;;10.88;3.88;;;;;;;;;;5035434;28;20053;-50
2022/11/13 08:09:00;;;;;;;6.70;3.00;;;;;;;;;;5035071;28;20148;-47
2022/11/13 08:11:27;;;;;;;8.50;3.28;;;;;;;;;;5035245;28;20136;-49
2022/11/13 08:13:53;;;;;;;4.85;2.10;;;;;;;;;;5034566;28;20164;-50
2022/11/13 08:16:19;;;;;;;4.22;2.40;;;;;;;;;;5043942;28;20092;-49
2022/11/13 08:18:46;;;;;;;5.93;2.55;;;;;;;;;;5042552;28;20135;-51
2022/11/13 08:21:12;;;;;;;8.80;2.40;;;;;;;;;;5047246;28;20126;-49
2022/11/13 08:23:40;;;;;;;6.13;2.17;;;;;;;;;;5049529;28;20124;-48
2022/11/13 08:26:15;;;;;;;6.32;2.22;;;;;;;;;;5041015;28;20136;-52
2022/11/13 08:28:42;;;;;;;4.60;2.20;;;;;;;;;;5042036;28;20477;-52
2022/11/13 08:31:10;;;;;;;3.88;2.00;;;;;;;;;;5035428;28;20107;-49
2022/11/13 08:33:36;;;;;;;6.65;2.47;;;;;;;;;;5050346;28;20153;-50
2022/11/13 08:36:03;;;;;;;5.38;2.60;;;;;;;;;;5041345;28;20139;-50
2022/11/13 08:38:29;;;;;;;4.38;2.08;;;;;;;;;;5040648;28;20124;-49
2022/11/13 08:40:56;;;;;;;5.10;2.08;;;;;;;;;;5034332;28;20050;-49
2022/11/13 08:43:24;;;;;;;4.93;2.90;;;;;;;;;;5033890;28;20077;-51
2022/11/13 08:45:51;;;;;;;5.13;2.28;;;;;;;;;;5034293;28;20092;-49
2022/11/13 08:48:17;;;;;;;5.43;2.10;;;;;;;;;;5037399;28;20099;-50
2022/11/13 08:50:43;;;;;;;4.43;2.17;;;;;;;;;;5034498;28;20055;-50
2022/11/13 08:53:10;;;;;;;5.45;2.40;;;;;;;;;;5043077;28;20871;-51
2022/11/13 08:55:37;;;;;;;3.72;1.77;;;;;;;;;;5035585;28;20630;-52
2022/11/13 08:58:04;;;;;;;3.60;1.90;;;;;;;;;;5047074;28;20084;-49
2022/11/13 09:00:32;;;;;;;4.15;1.42;;;;;;;;;;5052286;28;20132;-51
2022/11/13 09:02:59;;;;;;;4.68;1.85;;;;;;;;;;5037169;28;20058;-49
2022/11/13 09:05:26;;;;;;;3.53;1.50;;;;;;;;;;5033977;28;20064;-51
2022/11/13 09:07:55;;;;;;;4.85;1.58;;;;;;;;;;5042676;28;20485;-51
2022/11/13 09:10:21;;;;;;;3.08;1.20;;;;;;;;;;5049774;28;20135;-49
2022/11/13 09:12:48;;;;;;;3.28;1.02;;;;;;;;;;5047082;28;20490;-50
2022/11/13 09:15:14;;;;;;;3.67;1.20;;;;;;;;;;5049573;28;20061;-48
2022/11/13 09:17:42;;;;;;;1.98;1.00;;;;;;;;;;5046101;28;20049;-50
2022/11/13 09:20:09;;;;;;;3.00;1.15;;;;;;;;;;5052091;28;20127;-48
2022/11/13 09:22:35;;;;;;;6.57;1.88;;;;;;;;;;5049940;28;20128;-48
2022/11/13 09:25:02;;;;;;;3.80;1.50;;;;;;;;;;5050397;28;20135;-49
2022/11/13 09:27:28;;;;;;;3.40;1.52;;;;;;;;;;5048152;28;20183;-49
2022/11/13 09:29:57;;;;;;;3.50;1.35;;;;;;;;;;5050080;28;20070;-51
2022/11/13 09:32:23;;;;;;;3.25;1.70;;;;;;;;;;5051312;28;20056;-50
2022/11/13 09:34:51;;;;;;;3.85;1.55;;;;;;;;;;5042943;28;20803;-50
2022/11/13 09:37:18;;;;;;;3.67;1.40;;;;;;;;;;5044725;28;20049;-49
2022/11/13 09:39:44;;;;;;;3.17;1.50;;;;;;;;;;5052406;28;20118;-49
2022/11/13 09:42:13;;;;;;;5.78;1.70;;;;;;;;;;5049426;28;20613;-49
2022/11/13 09:44:42;;;;;;;3.95;1.20;;;;;;;;;;5048915;28;20135;-51
2022/11/13 09:47:14;;;;;;;4.88;1.58;;;;;;;;;;5050392;28;20533;-50
2022/11/13 09:49:42;;;;;;;2.22;1.02;;;;;;;;;;5048721;28;21179;-49
2022/11/13 09:52:15;;;;;;;3.25;1.42;;;;;;;;;;5049818;28;20152;-49
2022/11/13 09:54:42;;;;;;;2.13;1.40;;;;;;;;;;5044846;28;20076;-49
2022/11/13 09:57:14;;;;;;;2.20;1.25;;;;;;;;;;5049919;28;20438;-53
2022/11/13 09:59:46;;;;;;;2.65;1.40;;;;;;;;;;5046983;28;20136;-53
2022/11/13 10:02:17;;;;;;;3.88;1.00;;;;;;;;;;5051092;28;20132;-50
2022/11/13 10:04:50;;;;;;;3.08;1.15;;;;;;;;;;5049508;28;20128;-49
2022/11/13 10:07:22;;;;;;;2.72;1.33;;;;;;;;;;5051748;28;20061;-51
2022/11/13 10:09:55;;;;;;;2.88;1.52;;;;;;;;;;5052314;28;20058;-49
2022/11/13 10:12:21;;;;;;;5.28;1.30;;;;;;;;;;5046169;28;20501;-49
2022/11/13 10:14:49;;;;;;;3.67;1.20;;;;;;;;;;5050440;28;20136;-50
2022/11/13 10:17:18;;;;;;;2.38;1.08;;;;;;;;;;5048990;28;20151;-49
2022/11/13 10:19:48;;;;;;;3.97;1.77;;;;;;;;;;5049240;28;20049;-49
2022/11/13 10:22:16;;;;;;;7.97;2.50;;;;;;;;;;5050519;28;20136;-49
2022/11/13 10:24:44;;;;;;;3.78;1.70;;;;;;;;;;5050575;28;20056;-48
2022/11/13 10:27:11;;;;;;;3.15;1.40;;;;;;;;;;5042920;28;20148;-49
2022/11/13 10:29:38;;;;;;;2.58;1.35;;;;;;;;;;5038162;28;20530;-49
2022/11/13 10:32:18;;;;;;;3.65;1.50;;;;;;;;;;5049295;28;20162;-53
2022/11/13 10:34:48;;;;;;;3.90;1.40;;;;;;;;;;5042151;28;20079;-49
2022/11/13 10:37:20;;;;;;;3.03;1.35;;;;;;;;;;5047173;28;20076;-49
2022/11/13 10:39:48;;;;;;;3.03;1.58;;;;;;;;;;5047220;28;20137;-50
2022/11/13 10:42:22;;;;;;;3.30;1.45;;;;;;;;;;5042639;28;20134;-48
2022/11/13 10:44:53;;;;;;;5.15;1.20;;;;;;;;;;5042720;28;20384;-52
2022/11/13 10:47:20;;;;;;;4.00;1.77;;;;;;;;;;5044291;28;20121;-49
2022/11/13 10:49:47;;;;;;;3.25;1.40;;;;;;;;;;5045400;28;20060;-49
2022/11/13 10:52:19;;;;;;;5.95;1.48;;;;;;;;;;5046578;28;20143;-49
2022/11/13 10:54:46;;;;;;;6.07;1.30;;;;;;;;;;5045668;28;20053;-48
2022/11/13 10:57:33;;;;;;;5.97;1.52;;;;;;;;;;5045501;28;20049;-49
2022/11/13 11:00:01;;;;;;;5.15;1.33;;;;;;;;;;5035534;28;20504;-49
2022/11/13 11:02:28;;;;;;;5.20;1.20;;;;;;;;;;5050013;28;20065;-49
2022/11/13 11:05:01;;;;;;;5.85;1.92;;;;;;;;;;5033298;28;20053;-49
2022/11/13 11:07:27;;;;;;;4.03;1.20;;;;;;;;;;5033029;28;20053;-50
2022/11/13 11:09:54;;;;;;;5.47;1.25;;;;;;;;;;5048761;28;20662;-52
2022/11/13 11:12:22;;;;;;;4.47;1.23;;;;;;;;;;5047344;28;20252;-49
2022/11/13 11:15:13;;;;;;;4.40;1.30;;;;;;;;;;5043945;28;20404;-53
2022/11/13 11:17:44;;;;;;;4.07;1.20;;;;;;;;;;5018346;28;20133;-50
2022/11/13 11:20:16;;;;;;;4.47;1.00;;;;;;;;;;5043177;28;20131;-49
2022/11/13 11:22:44;;;;;;;4.10;1.50;;;;;;;;;;5043121;28;20136;-51
2022/11/13 11:25:13;;;;;;;3.22;1.70;;;;;;;;;;5048749;28;20136;-53
2022/11/13 11:27:43;;;;;;;5.25;1.30;;;;;;;;;;5051898;28;20556;-49
2022/11/13 11:30:15;;;;;;;3.17;1.00;;;;;;;;;;5042688;28;20133;-49
2022/11/13 11:32:45;;;;;;;3.63;1.02;;;;;;;;;;5045554;28;20470;-50
2022/11/13 11:35:14;;;;;;;3.70;1.30;;;;;;;;;;5035298;28;20045;-49
2022/11/13 11:37:45;;;;;;;2.38;1.10;;;;;;;;;;5043959;28;20136;-51
2022/11/13 11:40:14;;;;;;;3.75;1.10;;;;;;;;;;5038927;28;20435;-50
2022/11/13 11:42:45;;;;;;;3.58;1.30;;;;;;;;;;5037342;28;20060;-49
2022/11/13 11:45:14;;;;;;;3.47;1.17;;;;;;;;;;5036433;28;20041;-50
2022/11/13 11:47:40;;;;;;;7.28;1.48;;;;;;;;;;5036026;28;20140;-49
2022/11/13 11:50:12;;;;;;;4.03;1.40;;;;;;;;;;5035373;28;20140;-52
2022/11/13 11:52:55;;;;;;;6.70;2.50;;;;;;;;;;5037239;28;20530;-50
2022/11/13 11:55:39;;;;;;;4.43;1.67;;;;;;;;;;5035587;28;20129;-49
2022/11/13 11:58:13;;;;;;;7.07;2.58;;;;;;;;;;5034539;28;20136;-49
2022/11/13 12:00:43;;;;;;;5.78;1.73;;;;;;;;;;5045469;28;20072;-50
2022/11/13 12:03:30;;;;;;;5.10;2.28;;;;;;;;;;5036903;28;20141;-49
2022/11/13 12:06:02;;;;;;;10.63;2.83;;;;;;;;;;5047494;28;20135;-51
2022/11/13 12:08:33;;;;;;;7.65;2.47;;;;;;;;;;5046505;28;20131;-51
2022/11/13 12:11:02;;;;;;;4.38;1.90;;;;;;;;;;5037113;28;20136;-50
2022/11/13 12:13:30;;;;;;;3.45;1.73;;;;;;;;;;5037193;28;20149;-50
2022/11/13 12:16:00;;;;;;;5.95;1.75;;;;;;;;;;5047562;28;20085;-52
2022/11/13 12:18:32;;;;;;;3.92;2.00;;;;;;;;;;5038424;28;20136;-50
2022/11/13 12:21:03;;;;;;;6.28;2.22;;;;;;;;;;5047271;28;20056;-49
2022/11/13 12:23:40;;;;;;;5.72;2.38;;;;;;;;;;5053716;28;20049;-52
2022/11/13 12:26:11;;;;;;;8.07;3.40;;;;;;;;;;5046875;28;20715;-49
2022/11/13 12:28:42;;;;;;;7.20;2.90;;;;;;;;;;5033556;28;20128;-49
2022/11/13 12:31:14;;;;;;;7.57;2.70;;;;;;;;;;5034086;28;20378;-49
2022/11/13 12:33:43;;;;;;;5.88;2.42;;;;;;;;;;5039166;28;20052;-49
2022/11/13 12:36:12;;;;;;;8.82;3.55;;;;;;;;;;5033963;28;20132;-48
2022/11/13 12:38:42;;;;;;;7.43;3.53;;;;;;;;;;5050822;28;20076;-49
2022/11/13 12:41:14;;;;;;;9.65;3.15;;;;;;;;;;5038579;28;20531;-49
2022/11/13 12:43:52;;;;;;;6.05;2.95;;;;;;;;;;5034414;28;20133;-49
2022/11/13 12:46:19;;;;;;;5.53;2.97;;;;;;;;;;5035433;28;20045;-49
2022/11/13 12:48:46;;;;;;;5.30;3.08;;;;;;;;;;5034704;28;20073;-49
2022/11/13 12:51:15;;;;;;;7.43;2.92;;;;;;;;;;5034396;28;20056;-49
2022/11/13 12:53:45;;;;;;;6.30;2.80;;;;;;;;;;5044430;28;20051;-49
2022/11/13 12:56:35;;;;;;;8.88;3.88;;;;;;;;;;5040436;28;20065;-50
2022/11/13 12:59:03;;;;;;;9.77;3.97;;;;;;;;;;5033623;28;20128;-49
2022/11/13 13:01:32;;;;;;;11.40;4.25;;;;;;;;;;5034164;28;20125;-49
2022/11/13 13:04:06;;;;;;;9.02;3.72;;;;;;;;;;5047133;28;20045;-49
2022/11/13 13:06:40;;;;;;;10.37;3.57;;;;;;;;;;5034232;28;20082;-51
2022/11/13 13:09:17;;;;;;;9.18;4.50;;;;;;;;;;5046924;28;20096;-49
2022/11/13 13:11:47;;;;;;;6.75;2.70;;;;;;;;;;5033677;28;20514;-49
2022/11/13 13:14:25;;;;;;;7.70;3.70;;;;;;;;;;5033965;28;20046;-52
2022/11/13 13:16:52;;;;;;;9.80;3.83;;;;;;;;;;5033899;28;20111;-51
2022/11/13 13:19:24;;;;;;;6.53;3.05;;;;;;;;;;5039818;28;20144;-50
2022/11/13 13:21:51;;;;;;;10.63;4.38;;;;;;;;;;5044374;28;20124;-51
2022/11/13 13:24:28;;;;;;;9.40;3.90;;;;;;;;;;5041656;28;20974;-50
2022/11/13 13:26:55;;;;;;;7.70;3.28;;;;;;;;;;5044936;28;20102;-52
2022/11/13 13:29:23;;;;;;;6.47;3.20;;;;;;;;;;5035324;28;20136;-52
2022/11/13 13:31:52;;;;;;;8.20;3.60;;;;;;;;;;5039455;28;20136;-48
2022/11/13 13:34:32;;;;;;;7.18;2.70;;;;;;;;;;5039734;28;20049;-48
2022/11/13 13:37:03;;;;;;;7.90;2.95;;;;;;;;;;5043600;28;20110;-48
2022/11/13 13:39:34;;;;;;;7.15;2.88;;;;;;;;;;5037753;28;20128;-50
2022/11/13 13:42:08;;;;;;;5.13;2.53;;;;;;;;;;5035667;28;20175;-49
2022/11/13 13:44:41;;;;;;;9.35;2.88;;;;;;;;;;5044276;28;20059;-51
2022/11/13 13:47:10;;;;;;;4.95;2.80;;;;;;;;;;5046166;28;20151;-49
2022/11/13 13:49:37;;;;;;;4.00;1.98;;;;;;;;;;5041148;28;20128;-50
2022/11/13 13:52:05;;;;;;;6.47;2.63;;;;;;;;;;5041798;28;20049;-49
2022/11/13 13:54:33;;;;;;;5.25;2.05;;;;;;;;;;5045764;28;20136;-49
2022/11/13 13:56:59;;;;;;;7.63;3.55;;;;;;;;;;5044081;28;20309;-50
2022/11/13 13:59:28;;;;;;;7.22;3.50;;;;;;;;;;5046068;28;20049;-50
2022/11/13 14:01:57;;;;;;;8.40;3.30;;;;;;;;;;5042273;28;20140;-52
2022/11/13 14:04:24;;;;;;;6.30;3.28;;;;;;;;;;5051927;28;20453;-50
2022/11/13 14:06:50;;;;;;;7.07;3.00;;;;;;;;;;5052505;28;20059;-49
2022/11/13 14:09:19;;;;;;;5.65;2.63;;;;;;;;;;5048072;28;20081;-49
2022/11/13 14:11:47;;;;;;;7.47;2.85;;;;;;;;;;5043553;28;20156;-49
2022/11/13 14:14:16;;;;;;;7.95;2.90;;;;;;;;;;5047340;28;20505;-49
2022/11/13 14:16:46;;;;;;;5.50;3.40;;;;;;;;;;5032905;28;20064;-48
2022/11/13 14:19:13;;;;;;;6.72;3.45;;;;;;;;;;5033104;28;20060;-48
2022/11/13 14:21:39;;;;;;;7.30;3.60;;;;;;;;;;5037838;28;20087;-49
2022/11/13 14:24:10;;;;;;;7.20;3.67;;;;;;;;;;5045751;28;20088;-50
2022/11/13 14:26:39;;;;;;;7.80;3.15;;;;;;;;;;5051744;28;20127;-49
2022/11/13 14:29:05;;;;;;;5.47;2.72;;;;;;;;;;5049898;28;20136;-51
2022/11/13 14:31:34;;;;;;;6.82;3.00;;;;;;;;;;5039894;28;20041;-49
2022/11/13 14:34:02;;;;;;;5.75;3.00;;;;;;;;;;5048489;28;20370;-49
2022/11/13 14:36:30;;;;;;;7.40;3.42;;;;;;;;;;5032845;28;20204;-50
2022/11/13 14:38:57;;;;;;;7.38;3.53;;;;;;;;;;5050572;28;20373;-49
2022/11/13 14:41:26;;;;;;;6.70;3.50;;;;;;;;;;5042124;28;20055;-48
2022/11/13 14:43:54;;;;;;;7.03;3.47;;;;;;;;;;5036802;28;20140;-48
2022/11/13 14:46:26;;;;;;;8.32;3.20;;;;;;;;;;5036378;28;20128;-49
2022/11/13 14:48:54;;;;;;;4.53;2.75;;;;;;;;;;5036026;28;20132;-49